createdAt,value
2023-03-12T00:00:10.598Z,-0.20
2023-03-12T00:02:57.752Z,-0.20
2023-03-12T00:05:28.088Z,-0.10
2023-03-12T00:07:59.692Z,-0.10
2023-03-12T00:10:27.525Z,-0.10
2023-03-12T00:12:54.954Z,-0.10
2023-03-12T00:15:22.964Z,0.00
2023-03-12T00:17:50.705Z,-0.10
2023-03-12T00:20:22.090Z,0.00
2023-03-12T00:22:50.802Z,0.00
2023-03-12T00:25:18.560Z,0.00
2023-03-12T00:27:45.854Z,0.10
2023-03-12T00:30:13.710Z,0.10
2023-03-12T00:32:41.445Z,0.10
2023-03-12T00:35:09.537Z,0.10
2023-03-12T00:37:39.449Z,0.20
2023-03-12T00:40:09.366Z,0.20
2023-03-12T00:42:36.423Z,0.20
2023-03-12T00:45:04.098Z,0.20
2023-03-12T00:47:31.315Z,0.30
2023-03-12T00:49:58.595Z,0.30
2023-03-12T00:52:25.804Z,0.30
2023-03-12T00:54:53.141Z,0.20
2023-03-12T00:57:20.505Z,0.20
2023-03-12T00:59:48.438Z,0.20
2023-03-12T01:02:15.563Z,0.30
2023-03-12T01:04:42.883Z,0.30
2023-03-12T01:07:09.943Z,0.30
2023-03-12T01:09:37.398Z,0.30
2023-03-12T01:12:04.841Z,0.30
2023-03-12T01:14:32.262Z,0.30
2023-03-12T01:16:59.437Z,0.40
2023-03-12T01:19:26.998Z,0.30
2023-03-12T01:21:54.172Z,0.40
2023-03-12T01:24:21.497Z,0.40
2023-03-12T01:26:48.483Z,0.40
2023-03-12T01:29:15.936Z,0.40
2023-03-12T01:31:43.063Z,0.40
2023-03-12T01:34:11.998Z,0.50
2023-03-12T01:36:40.482Z,0.50
2023-03-12T01:39:07.756Z,0.50
2023-03-12T01:41:35.056Z,0.60
2023-03-12T01:44:04.339Z,0.60
2023-03-12T01:46:34.435Z,0.60
2023-03-12T01:49:29.803Z,0.70
2023-03-12T01:52:06.772Z,0.60
2023-03-12T01:54:57.512Z,0.70
2023-03-12T01:57:41.005Z,0.70
2023-03-12T02:00:17.203Z,0.70
2023-03-12T02:02:45.810Z,0.70
2023-03-12T02:05:29.550Z,0.70
2023-03-12T02:07:57.607Z,0.80
2023-03-12T02:10:25.919Z,0.70
2023-03-12T02:12:53.793Z,0.80
2023-03-12T02:15:23.590Z,0.80
2023-03-12T02:17:51.028Z,0.80
2023-03-12T02:20:35.087Z,0.80
2023-03-12T02:23:29.050Z,0.80
2023-03-12T02:25:57.790Z,0.80
2023-03-12T02:28:29.463Z,0.80
2023-03-12T02:31:00.477Z,0.80
2023-03-12T02:33:27.788Z,0.80
2023-03-12T02:35:55.797Z,0.80
2023-03-12T02:38:55.134Z,0.80
2023-03-12T02:41:24.038Z,0.70
2023-03-12T02:44:14.568Z,0.70
2023-03-12T02:46:47.870Z,0.70
2023-03-12T02:49:16.844Z,0.80
2023-03-12T02:51:45.631Z,0.80
2023-03-12T02:54:14.688Z,0.80
2023-03-12T02:56:43.466Z,0.70
2023-03-12T02:59:11.346Z,0.80
2023-03-12T03:01:43.004Z,0.70
2023-03-12T03:04:12.531Z,0.70
2023-03-12T03:06:43.218Z,0.70
2023-03-12T03:09:11.274Z,0.70
2023-03-12T03:11:38.885Z,0.60
2023-03-12T03:14:07.314Z,0.50
2023-03-12T03:16:35.796Z,0.50
2023-03-12T03:19:03.049Z,0.50
2023-03-12T03:21:30.705Z,0.50
2023-03-12T03:23:58.294Z,0.50
2023-03-12T03:26:25.978Z,0.50
2023-03-12T03:28:53.549Z,0.50
2023-03-12T03:31:21.524Z,0.60
2023-03-12T03:33:48.805Z,0.60
2023-03-12T03:36:17.128Z,0.60
2023-03-12T03:38:53.049Z,0.60
2023-03-12T03:41:22.986Z,0.70
2023-03-12T03:43:50.196Z,0.70
2023-03-12T03:46:20.144Z,0.80
2023-03-12T03:48:52.971Z,0.80
2023-03-12T03:51:21.899Z,0.80
2023-03-12T03:53:53.284Z,0.80
2023-03-12T03:56:20.766Z,0.80
2023-03-12T03:58:50.378Z,0.80
2023-03-12T04:01:20.772Z,0.70
2023-03-12T04:03:49.133Z,0.70
2023-03-12T04:06:16.714Z,0.70
2023-03-12T04:08:43.835Z,0.70
2023-03-12T04:11:18.522Z,0.70
2023-03-12T04:13:46.690Z,0.70
2023-03-12T04:16:17.229Z,0.70
2023-03-12T04:18:45.304Z,0.60
2023-03-12T04:21:14.553Z,0.60
2023-03-12T04:23:42.708Z,0.60
2023-03-12T04:26:12.114Z,0.60
2023-03-12T04:28:39.699Z,0.60
2023-03-12T04:31:09.150Z,0.60
2023-03-12T04:33:44.124Z,0.60
2023-03-12T04:36:14.702Z,0.50
2023-03-12T04:38:44.484Z,0.50
2023-03-12T04:41:16.024Z,0.50
2023-03-12T04:43:54.193Z,0.50
2023-03-12T04:46:22.789Z,0.50
2023-03-12T04:48:50.221Z,0.50
2023-03-12T04:51:18.286Z,0.40
2023-03-12T04:53:45.590Z,0.30
2023-03-12T04:56:14.181Z,0.30
2023-03-12T04:58:42.621Z,0.30
2023-03-12T05:01:24.151Z,0.30
2023-03-12T05:03:52.373Z,0.30
2023-03-12T05:06:21.500Z,0.30
2023-03-12T05:08:49.349Z,0.30
2023-03-12T05:11:17.278Z,0.30
2023-03-12T05:13:44.791Z,0.20
2023-03-12T05:16:13.046Z,0.20
2023-03-12T05:18:42.090Z,0.10
2023-03-12T05:21:14.955Z,0.10
2023-03-12T05:23:43.172Z,0.10
2023-03-12T05:26:32.914Z,0.10
2023-03-12T05:29:10.763Z,0.20
2023-03-12T05:31:38.672Z,0.30
2023-03-12T05:34:07.027Z,0.40
2023-03-12T05:36:38.964Z,0.40
2023-03-12T05:39:06.335Z,0.40
2023-03-12T05:41:35.209Z,0.40
2023-03-12T05:44:16.167Z,0.40
2023-03-12T05:46:47.206Z,0.40
2023-03-12T05:49:14.388Z,0.40
2023-03-12T05:51:43.388Z,0.40
2023-03-12T05:54:11.097Z,0.40
2023-03-12T05:56:38.585Z,0.30
2023-03-12T05:59:07.009Z,0.30
2023-03-12T06:01:34.487Z,1.20
2023-03-12T06:04:03.909Z,2.50
2023-03-12T06:06:33.469Z,2.80
2023-03-12T06:09:00.914Z,3.10
2023-03-12T06:11:28.341Z,2.90
2023-03-12T06:13:56.609Z,2.70
2023-03-12T06:16:26.537Z,2.60
2023-03-12T06:18:58.846Z,2.10
2023-03-12T06:21:30.488Z,2.20
2023-03-12T06:23:59.060Z,2.60
2023-03-12T06:26:37.357Z,3.40
2023-03-12T06:29:04.436Z,4.10
2023-03-12T06:31:32.938Z,4.10
2023-03-12T06:34:00.234Z,4.90
2023-03-12T06:36:27.808Z,5.50
2023-03-12T06:38:57.097Z,5.50
2023-03-12T06:41:27.431Z,6.30
2023-03-12T06:43:54.486Z,6.60
2023-03-12T06:46:23.735Z,5.50
2023-03-12T06:48:51.106Z,4.70
2023-03-12T06:51:18.769Z,4.40
2023-03-12T06:53:49.104Z,4.10
2023-03-12T06:56:16.955Z,4.00
2023-03-12T06:58:44.819Z,3.70
2023-03-12T07:01:12.198Z,3.40
2023-03-12T07:03:39.287Z,3.20
2023-03-12T07:06:16.238Z,3.00
2023-03-12T07:08:44.178Z,3.40
2023-03-12T07:11:11.908Z,3.40
2023-03-12T07:13:39.298Z,3.80
2023-03-12T07:16:07.577Z,3.50
2023-03-12T07:18:35.277Z,3.40
2023-03-12T07:21:05.345Z,3.10
2023-03-12T07:23:32.759Z,3.00
2023-03-12T07:26:01.712Z,2.80
2023-03-12T07:28:28.916Z,2.50
2023-03-12T07:31:06.313Z,2.20
2023-03-12T07:33:34.601Z,2.10
2023-03-12T07:36:03.034Z,2.30
2023-03-12T07:38:30.701Z,2.30
2023-03-12T07:41:00.457Z,2.30
2023-03-12T07:43:27.881Z,2.50
2023-03-12T07:45:55.829Z,2.60
2023-03-12T07:48:23.370Z,2.60
2023-03-12T07:50:51.214Z,2.60
2023-03-12T07:53:18.912Z,2.70
2023-03-12T07:55:48.306Z,2.60
2023-03-12T07:58:16.979Z,2.80
2023-03-12T08:00:45.070Z,2.90
2023-03-12T08:03:13.485Z,3.00
2023-03-12T08:05:44.047Z,3.30
2023-03-12T08:08:12.166Z,3.10
2023-03-12T08:10:39.830Z,3.10
2023-03-12T08:13:07.227Z,3.10
2023-03-12T08:15:37.065Z,3.10
2023-03-12T08:18:04.544Z,3.00
2023-03-12T08:20:34.204Z,2.70
2023-03-12T08:23:01.282Z,3.00
2023-03-12T08:25:28.973Z,3.10
2023-03-12T08:27:56.273Z,2.90
2023-03-12T08:30:23.779Z,2.70
2023-03-12T08:32:51.115Z,2.70
2023-03-12T08:35:18.907Z,2.70
2023-03-12T08:37:46.303Z,2.60
2023-03-12T08:40:14.314Z,2.70
2023-03-12T08:42:44.996Z,2.70
2023-03-12T08:45:13.617Z,2.60
2023-03-12T08:47:41.825Z,2.60
2023-03-12T08:50:14.591Z,2.50
2023-03-12T08:52:42.200Z,2.60
2023-03-12T08:55:11.853Z,2.50
2023-03-12T08:57:39.873Z,2.70
2023-03-12T09:00:11.589Z,3.00
2023-03-12T09:02:39.169Z,3.10
2023-03-12T09:05:07.497Z,3.20
2023-03-12T09:07:35.151Z,3.10
2023-03-12T09:10:03.205Z,3.20
2023-03-12T09:12:30.497Z,3.10
2023-03-12T09:15:04.264Z,3.30
2023-03-12T09:17:32.655Z,3.20
2023-03-12T09:20:00.334Z,3.10
2023-03-12T09:22:30.086Z,3.30
2023-03-12T09:24:57.982Z,3.20
2023-03-12T09:27:25.364Z,3.10
2023-03-12T09:30:00.652Z,3.10
2023-03-12T09:32:28.873Z,3.30
2023-03-12T09:34:56.585Z,3.20
2023-03-12T09:37:24.435Z,3.20
2023-03-12T09:39:53.075Z,3.40
2023-03-12T09:42:35.306Z,3.40
2023-03-12T09:45:05.598Z,3.50
2023-03-12T09:47:37.328Z,3.50
2023-03-12T09:50:29.796Z,3.40
2023-03-12T09:53:18.725Z,3.50
2023-03-12T09:55:49.086Z,3.50
2023-03-12T09:58:27.261Z,3.40
2023-03-12T10:01:19.456Z,3.20
2023-03-12T10:04:11.226Z,3.20
2023-03-12T10:06:53.941Z,3.40
2023-03-12T10:09:56.100Z,3.70
2023-03-12T10:12:34.579Z,4.00
2023-03-12T10:15:14.128Z,4.20
2023-03-12T10:18:08.809Z,4.10
2023-03-12T10:20:55.794Z,4.00
2023-03-12T10:23:44.645Z,4.10
2023-03-12T10:26:29.370Z,4.10
2023-03-12T10:29:06.078Z,4.00
2023-03-12T10:31:37.447Z,4.20
2023-03-12T10:34:26.174Z,4.10
2023-03-12T10:36:58.385Z,4.00
2023-03-12T10:39:25.884Z,4.10
2023-03-12T10:41:53.309Z,4.20
2023-03-12T10:44:23.830Z,4.50
2023-03-12T10:47:01.844Z,4.60
2023-03-12T10:49:32.228Z,4.90
2023-03-12T10:52:07.758Z,5.00
2023-03-12T10:54:40.545Z,4.90
2023-03-12T10:57:08.785Z,5.00
2023-03-12T10:59:43.165Z,4.90
2023-03-12T11:02:32.595Z,4.80
2023-03-12T11:05:04.810Z,4.80
2023-03-12T11:07:34.383Z,4.50
2023-03-12T11:10:07.604Z,4.30
2023-03-12T11:12:37.142Z,4.40
2023-03-12T11:15:25.713Z,4.50
2023-03-12T11:18:25.252Z,4.70
2023-03-12T11:21:09.915Z,4.70
2023-03-12T11:23:40.888Z,4.80
2023-03-12T11:26:24.451Z,4.90
2023-03-12T11:29:02.491Z,4.70
2023-03-12T11:31:37.821Z,4.70
2023-03-12T11:34:06.448Z,4.60
2023-03-12T11:37:04.262Z,4.80
2023-03-12T11:39:43.926Z,4.80
2023-03-12T11:42:38.898Z,4.90
2023-03-12T11:45:25.576Z,4.80
2023-03-12T11:48:16.076Z,4.60
2023-03-12T11:51:17.567Z,4.80
2023-03-12T11:54:16.604Z,4.70
2023-03-12T11:56:43.616Z,4.80
2023-03-12T11:59:20.357Z,4.90
2023-03-12T12:02:07.933Z,5.20
2023-03-12T12:04:44.416Z,5.00
2023-03-12T12:07:15.275Z,4.80
2023-03-12T12:10:01.954Z,4.90
2023-03-12T12:12:55.635Z,4.80
2023-03-12T12:15:53.464Z,4.90
2023-03-12T12:18:29.464Z,4.90
2023-03-12T12:21:13.849Z,4.80
2023-03-12T12:23:52.831Z,4.90
2023-03-12T12:26:36.763Z,5.20
2023-03-12T12:29:22.620Z,5.50
2023-03-12T12:31:55.281Z,5.30
2023-03-12T12:34:53.584Z,5.20
2023-03-12T12:37:30.475Z,5.20
2023-03-12T12:40:11.445Z,5.00
2023-03-12T12:42:51.852Z,5.10
2023-03-12T12:45:20.269Z,5.20
2023-03-12T12:48:00.416Z,5.20
2023-03-12T12:50:32.448Z,5.30
2023-03-12T12:53:27.873Z,5.20
2023-03-12T12:56:28.805Z,5.00
2023-03-12T12:59:39.763Z,5.20
2023-03-12T13:02:24.269Z,5.40
2023-03-12T13:04:56.892Z,5.40
2023-03-12T13:07:27.163Z,5.60
2023-03-12T13:09:59.689Z,5.70
2023-03-12T13:12:52.049Z,5.80
2023-03-12T13:15:46.297Z,5.60
2023-03-12T13:18:29.052Z,5.40
2023-03-12T13:21:29.343Z,5.20
2023-03-12T13:24:06.336Z,5.10
2023-03-12T13:27:09.202Z,5.30
2023-03-12T13:29:41.235Z,5.40
2023-03-12T13:32:36.265Z,5.40
2023-03-12T13:35:18.546Z,5.40
2023-03-12T13:37:52.002Z,5.30
2023-03-12T13:41:03.242Z,5.30
2023-03-12T13:43:35.276Z,5.20
2023-03-12T13:46:10.333Z,5.00
2023-03-12T13:48:49.097Z,4.80
2023-03-12T13:51:21.752Z,4.80
2023-03-12T13:54:15.765Z,4.80
2023-03-12T13:56:53.702Z,4.70
2023-03-12T13:59:23.120Z,4.70
2023-03-12T14:01:55.813Z,4.50
2023-03-12T14:04:38.303Z,4.40
2023-03-12T14:07:34.783Z,4.30
2023-03-12T14:10:29.770Z,4.20
2023-03-12T14:13:36.499Z,4.20
2023-03-12T14:16:25.127Z,4.20
2023-03-12T14:18:53.780Z,4.30
2023-03-12T14:21:23.714Z,4.20
2023-03-12T14:23:56.317Z,4.40
2023-03-12T14:26:27.692Z,4.60
2023-03-12T14:29:09.504Z,4.80
2023-03-12T14:31:38.534Z,4.70
2023-03-12T14:34:20.690Z,4.70
2023-03-12T14:37:05.951Z,4.60
2023-03-12T14:39:49.821Z,4.50
2023-03-12T14:42:30.138Z,4.40
2023-03-12T14:45:03.572Z,4.30
2023-03-12T14:47:39.310Z,4.40
2023-03-12T14:50:06.728Z,4.60
2023-03-12T14:52:34.453Z,4.70
2023-03-12T14:55:13.023Z,4.70
2023-03-12T14:57:41.071Z,4.70
2023-03-12T15:00:16.454Z,4.60
2023-03-12T15:02:44.380Z,4.60
2023-03-12T15:05:18.332Z,4.70
2023-03-12T15:07:46.720Z,4.70
2023-03-12T15:10:32.952Z,4.50
2023-03-12T15:13:02.180Z,4.50
2023-03-12T15:15:42.532Z,4.30
2023-03-12T15:18:29.005Z,4.20
2023-03-12T15:20:57.787Z,4.20
2023-03-12T15:23:31.162Z,4.10
2023-03-12T15:26:29.565Z,4.00
2023-03-12T15:29:28.989Z,3.90
2023-03-12T15:32:00.881Z,3.70
2023-03-12T15:34:28.713Z,3.70
2023-03-12T15:36:56.515Z,3.60
2023-03-12T15:39:33.396Z,3.60
2023-03-12T15:42:07.735Z,3.60
2023-03-12T15:44:44.887Z,3.60
2023-03-12T15:47:16.730Z,3.60
2023-03-12T15:49:56.928Z,3.40
2023-03-12T15:52:31.525Z,3.30
2023-03-12T15:55:05.211Z,3.30
2023-03-12T15:57:43.976Z,3.20
2023-03-12T16:00:14.269Z,3.10
2023-03-12T16:03:00.186Z,3.10
2023-03-12T16:05:34.452Z,3.00
2023-03-12T16:08:15.866Z,3.00
2023-03-12T16:10:43.553Z,3.00
2023-03-12T16:13:14.837Z,3.00
2023-03-12T16:15:42.575Z,3.00
2023-03-12T16:18:18.484Z,2.90
2023-03-12T16:20:47.552Z,2.90
2023-03-12T16:23:15.199Z,2.80
2023-03-12T16:25:45.313Z,2.80
2023-03-12T16:28:15.287Z,2.70
2023-03-12T16:30:43.283Z,2.70
2023-03-12T16:33:15.839Z,2.70
2023-03-12T16:35:43.927Z,2.60
2023-03-12T16:38:11.079Z,2.60
2023-03-12T16:40:43.577Z,2.50
2023-03-12T16:43:26.196Z,2.50
2023-03-12T16:45:56.723Z,2.50
2023-03-12T16:48:24.554Z,2.40
2023-03-12T16:50:54.746Z,2.40
2023-03-12T16:53:24.728Z,2.40
2023-03-12T16:56:01.276Z,2.30
2023-03-12T16:58:30.053Z,2.30
2023-03-12T17:01:00.207Z,2.30
2023-03-12T17:03:37.391Z,2.20
2023-03-12T17:06:13.297Z,2.20
2023-03-12T17:08:40.526Z,2.20
2023-03-12T17:11:25.230Z,2.10
2023-03-12T17:13:57.608Z,2.10
2023-03-12T17:16:25.788Z,2.10
2023-03-12T17:18:53.402Z,2.10
2023-03-12T17:21:21.663Z,2.00
2023-03-12T17:23:50.968Z,2.00
2023-03-12T17:26:18.968Z,2.00
2023-03-12T17:28:46.365Z,2.00
2023-03-12T17:31:14.032Z,1.90
2023-03-12T17:33:43.003Z,1.90
2023-03-12T17:36:11.358Z,1.80
2023-03-12T17:38:38.459Z,1.70
2023-03-12T17:41:16.522Z,1.60
2023-03-12T17:43:53.544Z,1.60
2023-03-12T17:46:20.998Z,1.50
2023-03-12T17:48:48.454Z,1.40
2023-03-12T17:51:15.790Z,1.40
2023-03-12T17:53:42.914Z,1.30
2023-03-12T17:56:17.814Z,1.30
2023-03-12T17:58:45.882Z,1.30
2023-03-12T18:01:14.410Z,1.20
2023-03-12T18:03:43.941Z,1.20
2023-03-12T18:06:12.613Z,1.20
2023-03-12T18:08:39.767Z,1.30
2023-03-12T18:11:07.398Z,1.30
2023-03-12T18:13:34.636Z,1.30
2023-03-12T18:16:02.240Z,1.30
2023-03-12T18:18:29.523Z,1.30
2023-03-12T18:20:57.174Z,1.30
2023-03-12T18:23:27.872Z,1.30
2023-03-12T18:25:55.713Z,1.30
2023-03-12T18:28:24.081Z,1.30
2023-03-12T18:30:51.445Z,1.30
2023-03-12T18:33:19.001Z,1.30
2023-03-12T18:35:46.790Z,1.30
2023-03-12T18:38:13.915Z,1.30
2023-03-12T18:40:44.139Z,1.30
2023-03-12T18:43:12.657Z,1.30
2023-03-12T18:45:44.077Z,1.20
2023-03-12T18:48:11.390Z,1.20
2023-03-12T18:50:39.062Z,1.20
2023-03-12T18:53:07.121Z,1.20
2023-03-12T18:55:34.462Z,1.20
2023-03-12T18:58:01.479Z,1.30
2023-03-12T19:00:29.106Z,1.30
2023-03-12T19:02:56.602Z,1.20
2023-03-12T19:05:24.215Z,1.20
2023-03-12T19:07:51.210Z,1.20
2023-03-12T19:10:18.908Z,1.20
2023-03-12T19:12:52.670Z,1.20
2023-03-12T19:15:24.031Z,1.20
2023-03-12T19:17:51.327Z,1.10
2023-03-12T19:20:19.088Z,1.10
2023-03-12T19:22:46.245Z,1.10
2023-03-12T19:25:15.344Z,1.10
2023-03-12T19:27:42.680Z,1.00
2023-03-12T19:30:10.785Z,1.00
2023-03-12T19:32:43.651Z,1.00
2023-03-12T19:35:13.879Z,1.00
2023-03-12T19:37:42.030Z,1.00
2023-03-12T19:40:11.021Z,1.00
2023-03-12T19:42:41.235Z,0.90
2023-03-12T19:45:14.094Z,1.00
2023-03-12T19:47:43.399Z,0.90
2023-03-12T19:50:13.778Z,0.90
2023-03-12T19:52:43.322Z,1.00
2023-03-12T19:55:12.856Z,1.00
2023-03-12T19:57:40.576Z,1.00
2023-03-12T20:00:09.876Z,1.00
2023-03-12T20:02:40.650Z,1.00
2023-03-12T20:05:08.870Z,0.90
2023-03-12T20:07:36.077Z,0.90
2023-03-12T20:10:05.698Z,0.90
2023-03-12T20:12:33.337Z,0.90
2023-03-12T20:15:04.539Z,0.90
2023-03-12T20:17:32.665Z,0.90
2023-03-12T20:20:01.221Z,0.90
2023-03-12T20:22:28.973Z,0.90
2023-03-12T20:24:56.234Z,0.90
2023-03-12T20:27:23.291Z,0.90
2023-03-12T20:29:50.959Z,0.90
2023-03-12T20:32:19.487Z,0.90
2023-03-12T20:34:46.870Z,1.00
2023-03-12T20:37:13.905Z,1.00
2023-03-12T20:39:44.259Z,1.00
2023-03-12T20:42:13.832Z,1.00
2023-03-12T20:44:41.167Z,1.00
2023-03-12T20:47:08.241Z,1.00
2023-03-12T20:49:35.568Z,1.00
2023-03-12T20:52:03.476Z,1.00
2023-03-12T20:54:32.749Z,1.00
2023-03-12T20:56:59.876Z,1.00
2023-03-12T20:59:27.186Z,1.00
2023-03-12T21:01:54.198Z,1.00
2023-03-12T21:04:21.555Z,1.10
2023-03-12T21:06:51.631Z,1.10
2023-03-12T21:09:21.192Z,1.10
2023-03-12T21:11:48.357Z,1.10
2023-03-12T21:14:15.854Z,1.10
2023-03-12T21:16:42.982Z,1.10
2023-03-12T21:19:10.525Z,1.10
2023-03-12T21:21:38.050Z,1.10
2023-03-12T21:24:05.686Z,1.10
2023-03-12T21:26:32.707Z,1.10
2023-03-12T21:29:00.104Z,1.10
2023-03-12T21:31:27.385Z,1.10
2023-03-12T21:33:56.320Z,1.10
2023-03-12T21:36:25.446Z,1.10
2023-03-12T21:38:53.615Z,1.10
2023-03-12T21:41:21.433Z,1.10
2023-03-12T21:43:49.010Z,1.10
2023-03-12T21:46:19.221Z,1.10
2023-03-12T21:48:48.090Z,1.10
2023-03-12T21:51:16.796Z,1.10
2023-03-12T21:53:44.279Z,1.10
2023-03-12T21:56:12.960Z,1.10
2023-03-12T21:58:40.210Z,1.10
2023-03-12T22:01:13.210Z,1.10
2023-03-12T22:03:42.248Z,1.10
2023-03-12T22:06:10.297Z,1.10
2023-03-12T22:08:39.128Z,1.00
2023-03-12T22:11:07.653Z,1.10
2023-03-12T22:13:34.984Z,1.10
2023-03-12T22:16:06.788Z,1.10
2023-03-12T22:18:38.227Z,1.10
2023-03-12T22:21:07.470Z,1.10
2023-03-12T22:23:38.123Z,1.10
2023-03-12T22:26:06.721Z,1.10
2023-03-12T22:28:34.984Z,1.00
2023-03-12T22:31:04.660Z,1.00
2023-03-12T22:33:32.696Z,1.00
2023-03-12T22:35:59.782Z,1.00
2023-03-12T22:38:27.488Z,1.00
2023-03-12T22:40:55.924Z,1.00
2023-03-12T22:43:25.660Z,1.00
2023-03-12T22:45:54.305Z,1.00
2023-03-12T22:48:21.636Z,1.10
2023-03-12T22:50:54.131Z,1.10
2023-03-12T22:53:21.450Z,1.10
2023-03-12T22:56:00.257Z,1.00
2023-03-12T22:58:28.558Z,1.00
2023-03-12T23:01:02.772Z,1.00
2023-03-12T23:03:31.521Z,1.00
2023-03-12T23:05:59.752Z,1.00
2023-03-12T23:08:27.984Z,1.00
2023-03-12T23:11:00.565Z,1.00
2023-03-12T23:13:29.992Z,1.00
2023-03-12T23:16:08.420Z,1.00
2023-03-12T23:18:36.701Z,1.00
2023-03-12T23:21:10.152Z,1.00
2023-03-12T23:23:44.879Z,0.90
2023-03-12T23:26:17.231Z,0.90
2023-03-12T23:28:46.775Z,0.90
2023-03-12T23:31:15.060Z,0.90
2023-03-12T23:33:42.872Z,0.90
2023-03-12T23:36:18.782Z,0.90
2023-03-12T23:38:47.528Z,0.80
2023-03-12T23:41:17.648Z,0.80
2023-03-12T23:43:45.784Z,0.80
2023-03-12T23:46:14.163Z,0.80
2023-03-12T23:48:41.669Z,0.80
2023-03-12T23:51:14.233Z,0.70
2023-03-12T23:53:44.302Z,0.70
2023-03-12T23:56:14.984Z,0.60
2023-03-12T23:58:43.498Z,0.60
